Terminal Aerodrome Forecast
Issued by NWS

Home | Current Version | Previous Version | Text Only | Print | Product List | Glossary On
Versions: 1 2 3 4 5 6 7 8 9 10 11 12 13 14 15 16 17 18 19
000
FTUS46 KMFR 011737
TAFOTH
TAF
KOTH 011737Z 0118/0218 23006KT P6SM SCT025 OVC040
     FM012000 27010G16KT P6SM -SHRA SCT015 OVC025
     FM020300 20004KT 5SM -RA BR OVC015
     FM021000 18005KT 5SM -SHRA BR SCT020 OVC040=

USA.gov is the U.S. government's official web portal to all federal, state and local government web resources and services.